sensor_id;sensor_type;location;lat;lon;timestamp;P1;durP1;ratioP1;P2;durP2;ratioP2
58414;SDS011;44210;42.706;18.344;2023-02-28T00:01:10;3.75;;;1.70;;
58414;SDS011;44210;42.706;18.344;2023-02-28T00:03:36;5.53;;;2.50;;
58414;SDS011;44210;42.706;18.344;2023-02-28T00:06:03;7.43;;;2.28;;
58414;SDS011;44210;42.706;18.344;2023-02-28T00:08:29;7.10;;;2.70;;
58414;SDS011;44210;42.706;18.344;2023-02-28T00:10:56;5.57;;;2.80;;
58414;SDS011;44210;42.706;18.344;2023-02-28T00:13:22;9.25;;;3.00;;
58414;SDS011;44210;42.706;18.344;2023-02-28T00:15:54;4.32;;;1.50;;
58414;SDS011;44210;42.706;18.344;2023-02-28T00:18:23;4.75;;;2.00;;
58414;SDS011;44210;42.706;18.344;2023-02-28T00:20:49;4.70;;;1.73;;
58414;SDS011;44210;42.706;18.344;2023-02-28T00:23:15;4.72;;;1.50;;
58414;SDS011;44210;42.706;18.344;2023-02-28T00:25:41;5.05;;;1.92;;
58414;SDS011;44210;42.706;18.344;2023-02-28T00:28:07;5.57;;;1.70;;
58414;SDS011;44210;42.706;18.344;2023-02-28T00:30:33;3.05;;;1.45;;
58414;SDS011;44210;42.706;18.344;2023-02-28T00:32:59;6.78;;;2.05;;
58414;SDS011;44210;42.706;18.344;2023-02-28T00:35:25;4.05;;;1.70;;
58414;SDS011;44210;42.706;18.344;2023-02-28T00:37:52;9.20;;;1.75;;
58414;SDS011;44210;42.706;18.344;2023-02-28T00:40:20;8.70;;;2.15;;
58414;SDS011;44210;42.706;18.344;2023-02-28T00:42:46;3.67;;;1.70;;
58414;SDS011;44210;42.706;18.344;2023-02-28T00:45:12;6.50;;;2.05;;
58414;SDS011;44210;42.706;18.344;2023-02-28T00:47:39;5.75;;;1.65;;
58414;SDS011;44210;42.706;18.344;2023-02-28T00:50:05;4.45;;;2.00;;
58414;SDS011;44210;42.706;18.344;2023-02-28T00:52:31;6.38;;;2.20;;
58414;SDS011;44210;42.706;18.344;2023-02-28T00:54:57;5.70;;;2.30;;
58414;SDS011;44210;42.706;18.344;2023-02-28T00:57:23;9.40;;;4.10;;
58414;SDS011;44210;42.706;18.344;2023-02-28T00:59:49;12.73;;;5.47;;
58414;SDS011;44210;42.706;18.344;2023-02-28T01:02:15;15.35;;;8.10;;
58414;SDS011;44210;42.706;18.344;2023-02-28T01:04:42;18.55;;;9.18;;
58414;SDS011;44210;42.706;18.344;2023-02-28T01:07:09;17.50;;;7.70;;
58414;SDS011;44210;42.706;18.344;2023-02-28T01:09:35;12.40;;;5.75;;
58414;SDS011;44210;42.706;18.344;2023-02-28T01:12:01;11.25;;;5.20;;
58414;SDS011;44210;42.706;18.344;2023-02-28T01:14:27;13.07;;;5.28;;
58414;SDS011;44210;42.706;18.344;2023-02-28T01:16:53;11.68;;;4.85;;
58414;SDS011;44210;42.706;18.344;2023-02-28T01:19:19;10.90;;;4.05;;
58414;SDS011;44210;42.706;18.344;2023-02-28T01:21:45;13.65;;;4.72;;
58414;SDS011;44210;42.706;18.344;2023-02-28T01:24:11;8.40;;;3.45;;
58414;SDS011;44210;42.706;18.344;2023-02-28T01:26:37;13.27;;;3.63;;
58414;SDS011;44210;42.706;18.344;2023-02-28T01:29:03;12.07;;;2.97;;
58414;SDS011;44210;42.706;18.344;2023-02-28T01:31:29;11.77;;;3.28;;
58414;SDS011;44210;42.706;18.344;2023-02-28T01:33:55;11.27;;;2.95;;
58414;SDS011;44210;42.706;18.344;2023-02-28T01:36:22;9.38;;;2.42;;
58414;SDS011;44210;42.706;18.344;2023-02-28T01:38:48;8.27;;;2.70;;
58414;SDS011;44210;42.706;18.344;2023-02-28T01:41:24;9.35;;;3.72;;
58414;SDS011;44210;42.706;18.344;2023-02-28T01:43:55;12.57;;;3.70;;
58414;SDS011;44210;42.706;18.344;2023-02-28T01:46:21;9.55;;;4.55;;
58414;SDS011;44210;42.706;18.344;2023-02-28T01:49:06;11.35;;;4.85;;
58414;SDS011;44210;42.706;18.344;2023-02-28T01:51:34;13.38;;;3.53;;
58414;SDS011;44210;42.706;18.344;2023-02-28T01:54:05;12.82;;;2.45;;
58414;SDS011;44210;42.706;18.344;2023-02-28T01:56:38;8.75;;;1.95;;
58414;SDS011;44210;42.706;18.344;2023-02-28T01:59:07;6.57;;;2.03;;
58414;SDS011;44210;42.706;18.344;2023-02-28T02:01:33;10.90;;;3.53;;
58414;SDS011;44210;42.706;18.344;2023-02-28T02:04:00;7.55;;;2.30;;
58414;SDS011;44210;42.706;18.344;2023-02-28T02:06:34;8.57;;;2.47;;
58414;SDS011;44210;42.706;18.344;2023-02-28T02:09:01;8.95;;;2.33;;
58414;SDS011;44210;42.706;18.344;2023-02-28T02:11:28;15.23;;;3.42;;
58414;SDS011;44210;42.706;18.344;2023-02-28T02:16:48;9.77;;;3.35;;
58414;SDS011;44210;42.706;18.344;2023-02-28T02:24:39;13.65;;;3.38;;
58414;SDS011;44210;42.706;18.344;2023-02-28T02:40:50;12.48;;;4.85;;
58414;SDS011;44210;42.706;18.344;2023-02-28T02:43:00;9.18;;;3.72;;
58414;SDS011;44210;42.706;18.344;2023-02-28T02:45:49;9.82;;;3.83;;
58414;SDS011;44210;42.706;18.344;2023-02-28T02:48:15;11.50;;;4.72;;
58414;SDS011;44210;42.706;18.344;2023-02-28T02:50:46;7.50;;;2.90;;
58414;SDS011;44210;42.706;18.344;2023-02-28T02:53:14;11.87;;;3.10;;
58414;SDS011;44210;42.706;18.344;2023-02-28T02:55:43;13.35;;;5.03;;
58414;SDS011;44210;42.706;18.344;2023-02-28T02:58:11;18.20;;;5.78;;
58414;SDS011;44210;42.706;18.344;2023-02-28T03:00:41;15.43;;;5.45;;
58414;SDS011;44210;42.706;18.344;2023-02-28T03:03:08;9.65;;;3.50;;
58414;SDS011;44210;42.706;18.344;2023-02-28T03:05:45;9.32;;;4.00;;
58414;SDS011;44210;42.706;18.344;2023-02-28T03:08:12;14.68;;;4.35;;
58414;SDS011;44210;42.706;18.344;2023-02-28T03:10:39;13.88;;;4.05;;
58414;SDS011;44210;42.706;18.344;2023-02-28T03:15:33;22.92;;;5.22;;
58414;SDS011;44210;42.706;18.344;2023-02-28T03:18:04;9.05;;;3.42;;
58414;SDS011;44210;42.706;18.344;2023-02-28T03:20:38;12.70;;;4.03;;
58414;SDS011;44210;42.706;18.344;2023-02-28T03:25:42;14.55;;;4.75;;
58414;SDS011;44210;42.706;18.344;2023-02-28T03:28:17;11.13;;;4.47;;
58414;SDS011;44210;42.706;18.344;2023-02-28T03:30:50;15.07;;;5.25;;
58414;SDS011;44210;42.706;18.344;2023-02-28T03:33:23;20.65;;;6.57;;
58414;SDS011;44210;42.706;18.344;2023-02-28T03:35:54;13.07;;;5.72;;
58414;SDS011;44210;42.706;18.344;2023-02-28T03:38:27;13.75;;;5.25;;
58414;SDS011;44210;42.706;18.344;2023-02-28T03:40:58;15.55;;;6.30;;
58414;SDS011;44210;42.706;18.344;2023-02-28T03:43:27;14.68;;;4.70;;
58414;SDS011;44210;42.706;18.344;2023-02-28T03:45:54;10.45;;;3.70;;
58414;SDS011;44210;42.706;18.344;2023-02-28T03:48:25;11.38;;;4.25;;
58414;SDS011;44210;42.706;18.344;2023-02-28T03:50:55;8.27;;;3.40;;
58414;SDS011;44210;42.706;18.344;2023-02-28T03:55:51;14.27;;;4.00;;
58414;SDS011;44210;42.706;18.344;2023-02-28T04:01:03;10.13;;;2.53;;
58414;SDS011;44210;42.706;18.344;2023-02-28T04:03:33;7.80;;;2.08;;
58414;SDS011;44210;42.706;18.344;2023-02-28T04:05:59;8.38;;;2.33;;
58414;SDS011;44210;42.706;18.344;2023-02-28T04:08:25;6.57;;;2.35;;
58414;SDS011;44210;42.706;18.344;2023-02-28T04:10:53;12.23;;;3.28;;
58414;SDS011;44210;42.706;18.344;2023-02-28T04:13:20;10.43;;;2.88;;
58414;SDS011;44210;42.706;18.344;2023-02-28T04:15:46;13.80;;;3.05;;
58414;SDS011;44210;42.706;18.344;2023-02-28T04:18:12;14.23;;;3.42;;
58414;SDS011;44210;42.706;18.344;2023-02-28T04:20:38;10.85;;;3.80;;
58414;SDS011;44210;42.706;18.344;2023-02-28T04:23:04;9.38;;;3.03;;
58414;SDS011;44210;42.706;18.344;2023-02-28T04:25:30;8.07;;;2.85;;
58414;SDS011;44210;42.706;18.344;2023-02-28T04:27:56;12.77;;;3.88;;
58414;SDS011;44210;42.706;18.344;2023-02-28T04:30:22;9.63;;;3.97;;
58414;SDS011;44210;42.706;18.344;2023-02-28T04:32:48;13.50;;;4.45;;
58414;SDS011;44210;42.706;18.344;2023-02-28T04:35:14;14.15;;;4.63;;
58414;SDS011;44210;42.706;18.344;2023-02-28T04:37:40;13.77;;;4.32;;
58414;SDS011;44210;42.706;18.344;2023-02-28T04:40:06;11.40;;;4.60;;
58414;SDS011;44210;42.706;18.344;2023-02-28T04:42:33;16.30;;;5.18;;
58414;SDS011;44210;42.706;18.344;2023-02-28T04:45:03;12.77;;;5.43;;
58414;SDS011;44210;42.706;18.344;2023-02-28T04:47:29;10.15;;;4.47;;
58414;SDS011;44210;42.706;18.344;2023-02-28T04:49:55;15.95;;;4.05;;
58414;SDS011;44210;42.706;18.344;2023-02-28T04:52:21;13.18;;;4.78;;
58414;SDS011;44210;42.706;18.344;2023-02-28T04:54:47;10.68;;;3.45;;
58414;SDS011;44210;42.706;18.344;2023-02-28T04:57:14;11.23;;;3.38;;
58414;SDS011;44210;42.706;18.344;2023-02-28T04:59:40;16.58;;;3.67;;
58414;SDS011;44210;42.706;18.344;2023-02-28T05:02:06;12.65;;;2.60;;
58414;SDS011;44210;42.706;18.344;2023-02-28T05:04:33;14.25;;;4.38;;
58414;SDS011;44210;42.706;18.344;2023-02-28T05:06:59;14.18;;;4.43;;
58414;SDS011;44210;42.706;18.344;2023-02-28T05:09:25;18.83;;;6.10;;
58414;SDS011;44210;42.706;18.344;2023-02-28T05:11:52;16.33;;;4.88;;
58414;SDS011;44210;42.706;18.344;2023-02-28T05:14:18;10.82;;;4.25;;
58414;SDS011;44210;42.706;18.344;2023-02-28T05:16:44;16.98;;;3.88;;
58414;SDS011;44210;42.706;18.344;2023-02-28T05:19:10;12.88;;;4.13;;
58414;SDS011;44210;42.706;18.344;2023-02-28T05:21:57;21.27;;;3.90;;
58414;SDS011;44210;42.706;18.344;2023-02-28T05:24:23;20.35;;;4.43;;
58414;SDS011;44210;42.706;18.344;2023-02-28T05:26:50;13.45;;;5.32;;
58414;SDS011;44210;42.706;18.344;2023-02-28T05:29:16;18.02;;;6.38;;
58414;SDS011;44210;42.706;18.344;2023-02-28T05:31:43;17.83;;;6.30;;
58414;SDS011;44210;42.706;18.344;2023-02-28T05:34:09;17.77;;;5.60;;
58414;SDS011;44210;42.706;18.344;2023-02-28T05:36:37;15.48;;;4.45;;
58414;SDS011;44210;42.706;18.344;2023-02-28T05:39:04;19.85;;;6.07;;
58414;SDS011;44210;42.706;18.344;2023-02-28T05:41:31;16.05;;;6.05;;
58414;SDS011;44210;42.706;18.344;2023-02-28T05:43:57;19.17;;;6.35;;
58414;SDS011;44210;42.706;18.344;2023-02-28T05:46:24;18.52;;;5.80;;
58414;SDS011;44210;42.706;18.344;2023-02-28T05:48:50;17.63;;;4.90;;
58414;SDS011;44210;42.706;18.344;2023-02-28T05:51:16;10.82;;;3.42;;
58414;SDS011;44210;42.706;18.344;2023-02-28T05:53:43;14.02;;;2.95;;
58414;SDS011;44210;42.706;18.344;2023-02-28T05:56:09;13.88;;;3.95;;
58414;SDS011;44210;42.706;18.344;2023-02-28T05:58:35;14.23;;;3.20;;
58414;SDS011;44210;42.706;18.344;2023-02-28T06:01:18;16.90;;;4.10;;
58414;SDS011;44210;42.706;18.344;2023-02-28T06:03:45;19.92;;;5.03;;
58414;SDS011;44210;42.706;18.344;2023-02-28T06:06:11;23.30;;;5.40;;
58414;SDS011;44210;42.706;18.344;2023-02-28T06:08:37;17.98;;;4.10;;
58414;SDS011;44210;42.706;18.344;2023-02-28T06:11:03;12.45;;;3.80;;
58414;SDS011;44210;42.706;18.344;2023-02-28T06:13:29;16.90;;;3.90;;
58414;SDS011;44210;42.706;18.344;2023-02-28T06:15:55;15.63;;;4.32;;
58414;SDS011;44210;42.706;18.344;2023-02-28T06:18:21;17.10;;;6.35;;
58414;SDS011;44210;42.706;18.344;2023-02-28T06:20:56;19.95;;;6.13;;
58414;SDS011;44210;42.706;18.344;2023-02-28T06:23:22;17.83;;;5.05;;
58414;SDS011;44210;42.706;18.344;2023-02-28T06:25:48;16.42;;;2.63;;
58414;SDS011;44210;42.706;18.344;2023-02-28T06:28:14;15.00;;;3.53;;
58414;SDS011;44210;42.706;18.344;2023-02-28T06:30:40;22.27;;;3.63;;
58414;SDS011;44210;42.706;18.344;2023-02-28T06:33:07;13.20;;;2.97;;
58414;SDS011;44210;42.706;18.344;2023-02-28T06:35:33;15.48;;;2.78;;
58414;SDS011;44210;42.706;18.344;2023-02-28T06:37:59;16.65;;;3.53;;
58414;SDS011;44210;42.706;18.344;2023-02-28T06:40:25;16.63;;;2.47;;
58414;SDS011;44210;42.706;18.344;2023-02-28T06:42:51;11.07;;;2.67;;
58414;SDS011;44210;42.706;18.344;2023-02-28T06:45:17;13.07;;;3.53;;
58414;SDS011;44210;42.706;18.344;2023-02-28T06:47:43;17.33;;;3.40;;
58414;SDS011;44210;42.706;18.344;2023-02-28T06:50:11;23.95;;;3.47;;
58414;SDS011;44210;42.706;18.344;2023-02-28T06:52:37;15.57;;;3.45;;
58414;SDS011;44210;42.706;18.344;2023-02-28T06:55:04;14.38;;;3.63;;
58414;SDS011;44210;42.706;18.344;2023-02-28T06:57:31;14.60;;;3.50;;
58414;SDS011;44210;42.706;18.344;2023-02-28T06:59:59;19.02;;;3.53;;
58414;SDS011;44210;42.706;18.344;2023-02-28T07:02:25;16.77;;;3.95;;
58414;SDS011;44210;42.706;18.344;2023-02-28T07:04:51;15.05;;;3.55;;
58414;SDS011;44210;42.706;18.344;2023-02-28T07:07:17;14.50;;;2.90;;
58414;SDS011;44210;42.706;18.344;2023-02-28T07:09:43;16.30;;;3.10;;
58414;SDS011;44210;42.706;18.344;2023-02-28T07:12:10;21.60;;;4.22;;
58414;SDS011;44210;42.706;18.344;2023-02-28T07:14:36;20.88;;;3.80;;
58414;SDS011;44210;42.706;18.344;2023-02-28T07:17:03;19.55;;;4.43;;
58414;SDS011;44210;42.706;18.344;2023-02-28T07:19:29;16.83;;;4.15;;
58414;SDS011;44210;42.706;18.344;2023-02-28T07:21:55;12.10;;;3.85;;
58414;SDS011;44210;42.706;18.344;2023-02-28T07:24:21;15.90;;;4.25;;
58414;SDS011;44210;42.706;18.344;2023-02-28T07:26:50;14.32;;;3.65;;
58414;SDS011;44210;42.706;18.344;2023-02-28T07:29:16;12.48;;;2.95;;
58414;SDS011;44210;42.706;18.344;2023-02-28T07:31:42;20.83;;;4.30;;
58414;SDS011;44210;42.706;18.344;2023-02-28T07:34:08;13.70;;;3.83;;
58414;SDS011;44210;42.706;18.344;2023-02-28T07:36:34;18.20;;;3.65;;
58414;SDS011;44210;42.706;18.344;2023-02-28T07:39:01;14.15;;;4.30;;
58414;SDS011;44210;42.706;18.344;2023-02-28T07:41:27;15.75;;;3.72;;
58414;SDS011;44210;42.706;18.344;2023-02-28T07:43:54;15.57;;;2.95;;
58414;SDS011;44210;42.706;18.344;2023-02-28T07:46:22;15.13;;;3.78;;
58414;SDS011;44210;42.706;18.344;2023-02-28T07:48:48;15.40;;;2.90;;
58414;SDS011;44210;42.706;18.344;2023-02-28T07:51:14;15.63;;;3.65;;
58414;SDS011;44210;42.706;18.344;2023-02-28T07:53:41;12.20;;;2.70;;
58414;SDS011;44210;42.706;18.344;2023-02-28T07:56:07;15.75;;;3.47;;
58414;SDS011;44210;42.706;18.344;2023-02-28T07:58:33;15.35;;;1.92;;
58414;SDS011;44210;42.706;18.344;2023-02-28T08:01:08;18.95;;;3.20;;
58414;SDS011;44210;42.706;18.344;2023-02-28T08:03:34;19.23;;;3.63;;
58414;SDS011;44210;42.706;18.344;2023-02-28T08:06:01;14.70;;;3.38;;
58414;SDS011;44210;42.706;18.344;2023-02-28T08:08:27;20.55;;;3.55;;
58414;SDS011;44210;42.706;18.344;2023-02-28T08:10:58;17.63;;;4.05;;
58414;SDS011;44210;42.706;18.344;2023-02-28T08:13:25;22.10;;;3.75;;
58414;SDS011;44210;42.706;18.344;2023-02-28T08:15:52;18.70;;;4.40;;
58414;SDS011;44210;42.706;18.344;2023-02-28T08:18:19;14.63;;;3.22;;
58414;SDS011;44210;42.706;18.344;2023-02-28T08:20:45;20.70;;;3.72;;
58414;SDS011;44210;42.706;18.344;2023-02-28T08:23:11;19.25;;;3.47;;
58414;SDS011;44210;42.706;18.344;2023-02-28T08:25:37;17.05;;;3.97;;
58414;SDS011;44210;42.706;18.344;2023-02-28T08:28:04;20.77;;;4.68;;
58414;SDS011;44210;42.706;18.344;2023-02-28T08:30:30;17.00;;;4.32;;
58414;SDS011;44210;42.706;18.344;2023-02-28T08:32:56;18.08;;;3.88;;
58414;SDS011;44210;42.706;18.344;2023-02-28T08:35:23;21.80;;;4.55;;
58414;SDS011;44210;42.706;18.344;2023-02-28T08:37:49;17.42;;;3.63;;
58414;SDS011;44210;42.706;18.344;2023-02-28T08:40:15;20.77;;;3.97;;
58414;SDS011;44210;42.706;18.344;2023-02-28T08:42:46;18.95;;;4.53;;
58414;SDS011;44210;42.706;18.344;2023-02-28T08:45:13;19.33;;;4.25;;
58414;SDS011;44210;42.706;18.344;2023-02-28T08:47:40;21.52;;;5.07;;
58414;SDS011;44210;42.706;18.344;2023-02-28T08:50:06;26.67;;;4.78;;
58414;SDS011;44210;42.706;18.344;2023-02-28T08:52:32;24.60;;;5.13;;
58414;SDS011;44210;42.706;18.344;2023-02-28T08:54:58;20.80;;;4.18;;
58414;SDS011;44210;42.706;18.344;2023-02-28T08:57:24;13.73;;;4.22;;
58414;SDS011;44210;42.706;18.344;2023-02-28T08:59:51;25.30;;;4.47;;
58414;SDS011;44210;42.706;18.344;2023-02-28T09:02:17;22.17;;;4.97;;
58414;SDS011;44210;42.706;18.344;2023-02-28T09:04:43;25.77;;;5.68;;
58414;SDS011;44210;42.706;18.344;2023-02-28T09:07:10;25.38;;;6.28;;
58414;SDS011;44210;42.706;18.344;2023-02-28T09:09:37;25.13;;;6.38;;
58414;SDS011;44210;42.706;18.344;2023-02-28T09:12:09;29.23;;;5.88;;
58414;SDS011;44210;42.706;18.344;2023-02-28T09:14:36;22.52;;;5.30;;
58414;SDS011;44210;42.706;18.344;2023-02-28T09:17:02;17.33;;;5.18;;
58414;SDS011;44210;42.706;18.344;2023-02-28T09:19:28;21.23;;;5.20;;
58414;SDS011;44210;42.706;18.344;2023-02-28T09:21:54;19.00;;;4.68;;
58414;SDS011;44210;42.706;18.344;2023-02-28T09:24:20;20.00;;;4.75;;
58414;SDS011;44210;42.706;18.344;2023-02-28T09:26:46;18.25;;;4.95;;
58414;SDS011;44210;42.706;18.344;2023-02-28T09:29:12;22.25;;;7.40;;
58414;SDS011;44210;42.706;18.344;2023-02-28T09:31:41;27.52;;;10.30;;
58414;SDS011;44210;42.706;18.344;2023-02-28T09:34:07;17.42;;;5.07;;
58414;SDS011;44210;42.706;18.344;2023-02-28T09:36:33;17.55;;;4.32;;
58414;SDS011;44210;42.706;18.344;2023-02-28T09:39:02;17.08;;;5.00;;
58414;SDS011;44210;42.706;18.344;2023-02-28T09:41:28;22.95;;;4.97;;
58414;SDS011;44210;42.706;18.344;2023-02-28T09:43:58;17.55;;;4.93;;
58414;SDS011;44210;42.706;18.344;2023-02-28T09:46:27;24.75;;;4.95;;
58414;SDS011;44210;42.706;18.344;2023-02-28T09:48:53;20.45;;;5.45;;
58414;SDS011;44210;42.706;18.344;2023-02-28T09:51:30;18.20;;;5.68;;
58414;SDS011;44210;42.706;18.344;2023-02-28T09:53:59;19.55;;;6.03;;
58414;SDS011;44210;42.706;18.344;2023-02-28T09:56:39;20.73;;;6.50;;
58414;SDS011;44210;42.706;18.344;2023-02-28T09:59:10;23.52;;;7.68;;
58414;SDS011;44210;42.706;18.344;2023-02-28T10:01:52;24.27;;;7.97;;
58414;SDS011;44210;42.706;18.344;2023-02-28T10:04:29;18.45;;;7.53;;
58414;SDS011;44210;42.706;18.344;2023-02-28T10:07:00;17.02;;;5.68;;
58414;SDS011;44210;42.706;18.344;2023-02-28T10:09:30;30.85;;;6.00;;
58414;SDS011;44210;42.706;18.344;2023-02-28T10:12:00;23.80;;;6.70;;
58414;SDS011;44210;42.706;18.344;2023-02-28T10:14:28;26.52;;;6.13;;
58414;SDS011;44210;42.706;18.344;2023-02-28T10:17:09;28.33;;;6.30;;
58414;SDS011;44210;42.706;18.344;2023-02-28T10:19:40;33.70;;;7.82;;
58414;SDS011;44210;42.706;18.344;2023-02-28T10:24:37;26.85;;;7.80;;
58414;SDS011;44210;42.706;18.344;2023-02-28T10:27:28;21.13;;;6.70;;
58414;SDS011;44210;42.706;18.344;2023-02-28T10:29:55;28.45;;;9.50;;
58414;SDS011;44210;42.706;18.344;2023-02-28T10:35:06;22.35;;;7.78;;
58414;SDS011;44210;42.706;18.344;2023-02-28T10:37:33;27.00;;;7.60;;
58414;SDS011;44210;42.706;18.344;2023-02-28T10:40:03;23.63;;;6.85;;
58414;SDS011;44210;42.706;18.344;2023-02-28T10:42:31;27.42;;;7.88;;
58414;SDS011;44210;42.706;18.344;2023-02-28T10:45:11;20.13;;;8.75;;
58414;SDS011;44210;42.706;18.344;2023-02-28T10:47:48;22.00;;;7.57;;
58414;SDS011;44210;42.706;18.344;2023-02-28T10:52:53;14.60;;;6.50;;
58414;SDS011;44210;42.706;18.344;2023-02-28T10:55:21;26.83;;;7.60;;
58414;SDS011;44210;42.706;18.344;2023-02-28T10:57:47;22.88;;;6.55;;
58414;SDS011;44210;42.706;18.344;2023-02-28T11:00:18;19.90;;;5.68;;
58414;SDS011;44210;42.706;18.344;2023-02-28T11:02:46;24.80;;;6.07;;
58414;SDS011;44210;42.706;18.344;2023-02-28T11:05:23;25.35;;;4.75;;
58414;SDS011;44210;42.706;18.344;2023-02-28T11:07:53;20.38;;;4.47;;
58414;SDS011;44210;42.706;18.344;2023-02-28T11:13:17;25.73;;;4.75;;
58414;SDS011;44210;42.706;18.344;2023-02-28T11:15:46;31.13;;;4.75;;
58414;SDS011;44210;42.706;18.344;2023-02-28T11:18:20;29.88;;;4.80;;
58414;SDS011;44210;42.706;18.344;2023-02-28T11:20:48;28.95;;;5.50;;
58414;SDS011;44210;42.706;18.344;2023-02-28T11:23:14;19.50;;;4.82;;
58414;SDS011;44210;42.706;18.344;2023-02-28T11:25:45;23.52;;;6.07;;
58414;SDS011;44210;42.706;18.344;2023-02-28T11:28:29;35.78;;;6.43;;
58414;SDS011;44210;42.706;18.344;2023-02-28T11:35:51;26.65;;;6.30;;
58414;SDS011;44210;42.706;18.344;2023-02-28T11:38:18;29.08;;;5.80;;
58414;SDS011;44210;42.706;18.344;2023-02-28T11:51:21;32.10;;;5.30;;
58414;SDS011;44210;42.706;18.344;2023-02-28T11:56:23;25.08;;;4.85;;
58414;SDS011;44210;42.706;18.344;2023-02-28T12:04:22;30.30;;;5.45;;
58414;SDS011;44210;42.706;18.344;2023-02-28T12:17:19;53.72;;;8.65;;
58414;SDS011;44210;42.706;18.344;2023-02-28T12:19:54;37.38;;;6.25;;
58414;SDS011;44210;42.706;18.344;2023-02-28T12:22:30;36.03;;;6.13;;
58414;SDS011;44210;42.706;18.344;2023-02-28T12:27:29;32.55;;;6.80;;
58414;SDS011;44210;42.706;18.344;2023-02-28T12:32:26;35.25;;;6.53;;
58414;SDS011;44210;42.706;18.344;2023-02-28T12:34:55;38.65;;;6.40;;
58414;SDS011;44210;42.706;18.344;2023-02-28T12:37:25;46.45;;;6.68;;
58414;SDS011;44210;42.706;18.344;2023-02-28T12:39:54;41.15;;;6.50;;
58414;SDS011;44210;42.706;18.344;2023-02-28T12:42:29;33.30;;;6.40;;
58414;SDS011;44210;42.706;18.344;2023-02-28T12:45:01;47.60;;;7.10;;
58414;SDS011;44210;42.706;18.344;2023-02-28T12:47:28;48.53;;;6.97;;
58414;SDS011;44210;42.706;18.344;2023-02-28T12:50:05;46.67;;;16.88;;
58414;SDS011;44210;42.706;18.344;2023-02-28T12:55:05;38.20;;;8.52;;
58414;SDS011;44210;42.706;18.344;2023-02-28T12:58:33;62.50;;;14.45;;
58414;SDS011;44210;42.706;18.344;2023-02-28T13:00:29;43.22;;;7.97;;
58414;SDS011;44210;42.706;18.344;2023-02-28T13:03:11;45.40;;;7.15;;
58414;SDS011;44210;42.706;18.344;2023-02-28T13:10:43;40.47;;;7.30;;
58414;SDS011;44210;42.706;18.344;2023-02-28T13:13:16;40.22;;;7.00;;
58414;SDS011;44210;42.706;18.344;2023-02-28T13:15:56;48.85;;;8.27;;
58414;SDS011;44210;42.706;18.344;2023-02-28T13:18:30;52.63;;;8.73;;
58414;SDS011;44210;42.706;18.344;2023-02-28T13:20:56;48.97;;;8.80;;
58414;SDS011;44210;42.706;18.344;2023-02-28T13:23:36;52.83;;;8.30;;
58414;SDS011;44210;42.706;18.344;2023-02-28T13:26:03;45.17;;;7.85;;
58414;SDS011;44210;42.706;18.344;2023-02-28T13:31:14;46.00;;;7.70;;
58414;SDS011;44210;42.706;18.344;2023-02-28T13:38:45;48.85;;;8.65;;
58414;SDS011;44210;42.706;18.344;2023-02-28T13:51:51;48.85;;;6.63;;
58414;SDS011;44210;42.706;18.344;2023-02-28T14:00:02;41.72;;;7.40;;
58414;SDS011;44210;42.706;18.344;2023-02-28T14:04:59;45.35;;;6.85;;
58414;SDS011;44210;42.706;18.344;2023-02-28T14:07:28;40.63;;;8.77;;
58414;SDS011;44210;42.706;18.344;2023-02-28T14:09:59;44.63;;;7.63;;
58414;SDS011;44210;42.706;18.344;2023-02-28T14:13:36;45.22;;;7.25;;
58414;SDS011;44210;42.706;18.344;2023-02-28T14:18:02;52.88;;;8.40;;
58414;SDS011;44210;42.706;18.344;2023-02-28T14:20:29;57.75;;;7.95;;
58414;SDS011;44210;42.706;18.344;2023-02-28T14:23:06;44.75;;;8.82;;
58414;SDS011;44210;42.706;18.344;2023-02-28T14:33:31;53.72;;;8.30;;
58414;SDS011;44210;42.706;18.344;2023-02-28T14:38:50;47.75;;;7.10;;
58414;SDS011;44210;42.706;18.344;2023-02-28T14:41:19;55.05;;;7.32;;
58414;SDS011;44210;42.706;18.344;2023-02-28T14:43:53;45.30;;;7.43;;
58414;SDS011;44210;42.706;18.344;2023-02-28T14:46:20;40.72;;;7.82;;
58414;SDS011;44210;42.706;18.344;2023-02-28T14:48:47;41.97;;;6.78;;
58414;SDS011;44210;42.706;18.344;2023-02-28T14:51:17;61.08;;;8.13;;
58414;SDS011;44210;42.706;18.344;2023-02-28T14:53:44;38.80;;;6.43;;
58414;SDS011;44210;42.706;18.344;2023-02-28T14:56:21;52.42;;;8.05;;
58414;SDS011;44210;42.706;18.344;2023-02-28T14:58:54;38.10;;;6.88;;
58414;SDS011;44210;42.706;18.344;2023-02-28T15:01:21;42.58;;;7.30;;
58414;SDS011;44210;42.706;18.344;2023-02-28T15:03:56;45.38;;;6.57;;
58414;SDS011;44210;42.706;18.344;2023-02-28T15:06:22;53.50;;;7.25;;
58414;SDS011;44210;42.706;18.344;2023-02-28T15:09:05;49.08;;;8.20;;
58414;SDS011;44210;42.706;18.344;2023-02-28T15:13:58;41.85;;;7.20;;
58414;SDS011;44210;42.706;18.344;2023-02-28T15:16:36;47.38;;;6.78;;
58414;SDS011;44210;42.706;18.344;2023-02-28T15:21:45;50.42;;;6.22;;
58414;SDS011;44210;42.706;18.344;2023-02-28T15:24:15;44.67;;;7.00;;
58414;SDS011;44210;42.706;18.344;2023-02-28T15:26:50;47.35;;;7.45;;
58414;SDS011;44210;42.706;18.344;2023-02-28T15:29:19;45.70;;;7.18;;
58414;SDS011;44210;42.706;18.344;2023-02-28T15:31:48;47.50;;;6.75;;
58414;SDS011;44210;42.706;18.344;2023-02-28T15:34:22;44.13;;;11.60;;
58414;SDS011;44210;42.706;18.344;2023-02-28T15:36:48;50.90;;;9.02;;
58414;SDS011;44210;42.706;18.344;2023-02-28T15:39:21;43.22;;;8.23;;
58414;SDS011;44210;42.706;18.344;2023-02-28T15:41:48;39.28;;;7.95;;
58414;SDS011;44210;42.706;18.344;2023-02-28T15:44:24;33.50;;;6.40;;
58414;SDS011;44210;42.706;18.344;2023-02-28T15:49:26;45.15;;;7.43;;
58414;SDS011;44210;42.706;18.344;2023-02-28T15:51:53;43.45;;;7.57;;
58414;SDS011;44210;42.706;18.344;2023-02-28T15:54:27;39.70;;;7.70;;
58414;SDS011;44210;42.706;18.344;2023-02-28T15:56:54;46.47;;;8.67;;
58414;SDS011;44210;42.706;18.344;2023-02-28T15:59:22;42.28;;;7.32;;
58414;SDS011;44210;42.706;18.344;2023-02-28T16:04:34;49.08;;;13.80;;
58414;SDS011;44210;42.706;18.344;2023-02-28T16:09:26;61.35;;;14.43;;
58414;SDS011;44210;42.706;18.344;2023-02-28T16:11:55;54.08;;;12.57;;
58414;SDS011;44210;42.706;18.344;2023-02-28T16:14:25;53.17;;;16.17;;
58414;SDS011;44210;42.706;18.344;2023-02-28T16:16:53;55.92;;;14.57;;
58414;SDS011;44210;42.706;18.344;2023-02-28T16:19:20;35.65;;;9.00;;
58414;SDS011;44210;42.706;18.344;2023-02-28T16:21:46;49.20;;;10.30;;
58414;SDS011;44210;42.706;18.344;2023-02-28T16:24:12;54.13;;;14.85;;
58414;SDS011;44210;42.706;18.344;2023-02-28T16:26:42;54.78;;;15.77;;
58414;SDS011;44210;42.706;18.344;2023-02-28T16:29:13;48.08;;;8.68;;
58414;SDS011;44210;42.706;18.344;2023-02-28T16:31:40;38.00;;;9.13;;
58414;SDS011;44210;42.706;18.344;2023-02-28T16:34:06;53.05;;;11.10;;
58414;SDS011;44210;42.706;18.344;2023-02-28T16:36:33;56.70;;;13.38;;
58414;SDS011;44210;42.706;18.344;2023-02-28T16:38:59;51.40;;;14.35;;
58414;SDS011;44210;42.706;18.344;2023-02-28T16:41:26;60.42;;;16.40;;
58414;SDS011;44210;42.706;18.344;2023-02-28T16:43:54;61.70;;;21.55;;
58414;SDS011;44210;42.706;18.344;2023-02-28T16:46:24;60.85;;;14.50;;
58414;SDS011;44210;42.706;18.344;2023-02-28T16:48:50;55.38;;;10.15;;
58414;SDS011;44210;42.706;18.344;2023-02-28T16:51:17;48.45;;;8.90;;
58414;SDS011;44210;42.706;18.344;2023-02-28T16:53:44;57.45;;;13.50;;